createdAt,value
2022-10-12T00:01:50.921Z,101978.03
2022-10-12T00:06:52.379Z,101974.47
2022-10-12T00:11:53.780Z,101976.22
2022-10-12T00:16:55.243Z,101974.38
2022-10-12T00:21:56.648Z,101972.63
2022-10-12T00:26:58.189Z,101967.31
2022-10-12T00:31:59.618Z,101966.44
2022-10-12T00:37:01.188Z,101969.94
2022-10-12T00:42:02.955Z,101970.88
2022-10-12T00:47:10.483Z,101978.81
2022-10-12T00:52:15.572Z,101976.16
2022-10-12T00:57:18.940Z,101973.50
2022-10-12T01:02:22.212Z,101969.13
2022-10-12T01:07:23.665Z,101972.59
2022-10-12T01:12:26.662Z,101962.00
2022-10-12T01:17:46.546Z,101962.03
2022-10-12T01:23:06.564Z,101954.00
2022-10-12T01:28:29.575Z,101951.38
2022-10-12T01:33:45.493Z,101954.06
2022-10-12T01:38:55.932Z,101947.84
2022-10-12T01:43:57.352Z,101944.34
2022-10-12T01:49:01.180Z,101949.63
2022-10-12T01:54:19.772Z,101938.13
2022-10-12T01:59:38.890Z,101944.34
2022-10-12T02:04:58.284Z,101935.53
2022-10-12T02:10:02.826Z,101933.75
2022-10-12T02:15:08.245Z,101942.53
2022-10-12T02:20:12.847Z,101930.16
2022-10-12T02:25:18.271Z,101927.56
2022-10-12T02:30:21.319Z,101925.78
2022-10-12T02:35:38.528Z,101915.16
2022-10-12T02:41:00.902Z,101915.19
2022-10-12T02:46:05.982Z,101909.00
2022-10-12T02:51:10.310Z,101905.47
2022-10-12T02:56:14.113Z,101898.38
2022-10-12T03:01:19.663Z,101893.97
2022-10-12T03:06:21.392Z,101885.16
2022-10-12T03:11:23.735Z,101887.72
2022-10-12T03:16:25.331Z,101876.31
2022-10-12T03:21:26.709Z,101888.63
2022-10-12T03:26:28.107Z,101887.75
2022-10-12T03:31:29.591Z,101887.72
2022-10-12T03:36:31.307Z,101891.16
2022-10-12T03:41:32.695Z,101878.81
2022-10-12T03:46:34.078Z,101877.97
2022-10-12T03:51:35.534Z,101870.94
2022-10-12T03:56:37.206Z,101879.75
2022-10-12T04:01:38.639Z,101868.34
2022-10-12T04:06:40.081Z,101871.81
2022-10-12T04:11:41.473Z,101875.38
2022-10-12T04:16:42.868Z,101869.94
2022-10-12T04:21:44.232Z,101876.19
2022-10-12T04:26:45.670Z,101868.22
2022-10-12T04:31:47.056Z,101870.84
2022-10-12T04:36:48.519Z,101876.19
2022-10-12T04:41:49.892Z,101875.28
2022-10-12T04:46:51.266Z,101870.03
2022-10-12T04:51:52.689Z,101870.84
2022-10-12T04:56:54.161Z,101871.69
2022-10-12T05:01:55.666Z,101862.88
2022-10-12T05:06:57.094Z,101860.19
2022-10-12T05:11:58.477Z,101861.91
2022-10-12T05:16:59.863Z,101853.97
2022-10-12T05:22:01.618Z,101842.41
2022-10-12T05:27:03.072Z,101847.75
2022-10-12T05:32:04.718Z,101854.78
2022-10-12T05:37:06.129Z,101862.72
2022-10-12T05:42:07.573Z,101859.16
2022-10-12T05:47:09.012Z,101852.97
2022-10-12T05:52:10.553Z,101853.81
2022-10-12T05:57:14.646Z,101853.81
2022-10-12T06:02:17.865Z,101851.25
2022-10-12T06:07:19.387Z,101854.78
2022-10-12T06:12:20.802Z,101853.88
2022-10-12T06:17:22.218Z,101869.75
2022-10-12T06:22:23.601Z,101859.22
2022-10-12T06:27:25.267Z,101863.69
2022-10-12T06:32:26.661Z,101868.00
2022-10-12T06:37:48.502Z,101869.84
2022-10-12T06:42:54.932Z,101882.31
2022-10-12T06:48:00.102Z,101881.47
2022-10-12T06:53:01.547Z,101871.81
2022-10-12T06:58:02.990Z,101867.38
2022-10-12T07:03:04.555Z,101858.66
2022-10-12T07:08:05.967Z,101857.75
2022-10-12T07:13:07.394Z,101852.47
2022-10-12T07:18:08.799Z,101862.22
2022-10-12T07:23:10.195Z,101854.28
2022-10-12T07:28:11.726Z,101849.00
2022-10-12T07:33:13.164Z,101850.78
2022-10-12T07:38:14.544Z,101860.50
2022-10-12T07:43:16.613Z,101860.53
2022-10-12T07:48:18.202Z,101875.53
2022-10-12T07:53:19.602Z,101873.69
2022-10-12T07:58:21.131Z,101864.75
2022-10-12T08:03:22.620Z,101863.78
2022-10-12T08:08:24.102Z,101858.44
2022-10-12T08:13:25.583Z,101861.03
2022-10-12T08:18:27.008Z,101855.69
2022-10-12T08:23:29.302Z,101848.66
2022-10-12T08:28:31.051Z,101852.00
2022-10-12T08:33:33.134Z,101843.59
2022-10-12T08:38:38.657Z,101838.13
2022-10-12T08:43:51.898Z,101844.38
2022-10-12T08:49:01.659Z,101851.38
2022-10-12T08:54:07.414Z,101858.28
2022-10-12T08:59:17.785Z,101856.63
2022-10-12T09:04:34.165Z,101859.34
2022-10-12T09:09:50.500Z,101865.47
2022-10-12T09:14:56.748Z,101871.28
2022-10-12T09:20:30.724Z,101872.16
2022-10-12T09:25:32.145Z,101867.56
2022-10-12T09:30:38.764Z,101871.03
2022-10-12T09:35:41.896Z,101870.16
2022-10-12T09:40:45.065Z,101864.66
2022-10-12T09:45:46.639Z,101854.81
2022-10-12T09:50:56.094Z,101847.72
2022-10-12T09:56:07.766Z,101848.56
2022-10-12T10:01:28.582Z,101847.31
2022-10-12T10:06:30.057Z,101849.97
2022-10-12T10:11:31.605Z,101854.34
2022-10-12T10:16:33.159Z,101845.91
2022-10-12T10:21:37.654Z,101853.63
2022-10-12T10:27:02.489Z,101846.31
2022-10-12T10:32:16.255Z,101853.75
2022-10-12T10:37:22.790Z,101840.06
2022-10-12T10:42:31.491Z,101840.84
2022-10-12T10:47:41.715Z,101831.59
2022-10-12T10:52:43.754Z,101834.09
2022-10-12T10:58:03.306Z,101828.31
2022-10-12T11:03:12.918Z,101816.00
2022-10-12T11:08:29.854Z,101803.41
2022-10-12T11:13:37.804Z,101814.16
2022-10-12T11:18:45.593Z,101806.06
2022-10-12T11:23:51.847Z,101810.66
2022-10-12T11:28:56.795Z,101812.31
2022-10-12T11:34:03.234Z,101811.41
2022-10-12T11:39:42.666Z,101798.56
2022-10-12T11:44:46.197Z,101793.75
2022-10-12T11:49:59.742Z,101785.06
2022-10-12T11:55:30.598Z,101772.72
2022-10-12T12:00:48.208Z,101766.84
2022-10-12T12:05:49.756Z,101768.41
2022-10-12T12:11:02.046Z,101768.84
2022-10-12T12:16:12.273Z,101764.56
2022-10-12T12:21:13.733Z,101746.19
2022-10-12T12:26:17.798Z,101742.28
2022-10-12T12:31:21.938Z,101730.28
2022-10-12T12:36:35.666Z,101727.84
2022-10-12T12:42:01.653Z,101717.97
2022-10-12T12:47:08.483Z,101706.03
2022-10-12T12:52:24.673Z,101706.75
2022-10-12T12:57:47.513Z,101703.94
2022-10-12T13:03:07.914Z,101696.88
2022-10-12T13:08:46.992Z,101700.31
2022-10-12T13:14:05.910Z,101692.72
2022-10-12T13:19:13.011Z,101695.59
2022-10-12T13:24:16.231Z,101680.75
2022-10-12T13:29:43.397Z,101671.53
2022-10-12T13:34:47.329Z,101666.06
2022-10-12T13:39:49.956Z,101667.75
2022-10-12T13:44:51.467Z,101663.31
2022-10-12T13:49:53.361Z,101660.31
2022-10-12T13:54:55.677Z,101656.13
2022-10-12T14:00:03.026Z,101649.97
2022-10-12T14:05:15.939Z,101649.41
2022-10-12T14:10:26.203Z,101642.75
2022-10-12T14:15:33.822Z,101636.81
2022-10-12T14:20:38.866Z,101632.44
2022-10-12T14:26:00.686Z,101631.28
2022-10-12T14:31:02.799Z,101628.66
2022-10-12T14:36:29.967Z,101619.91
2022-10-12T14:41:48.364Z,101616.88
2022-10-12T14:47:05.979Z,101615.69
2022-10-12T14:52:17.519Z,101619.03
2022-10-12T14:57:19.425Z,101614.91
2022-10-12T15:02:25.461Z,101614.47
2022-10-12T15:07:30.734Z,101610.41
2022-10-12T15:12:32.482Z,101620.19
2022-10-12T15:17:33.907Z,101605.44
2022-10-12T15:22:35.493Z,101584.47
2022-10-12T15:27:36.969Z,101585.50
2022-10-12T15:32:38.484Z,101571.09
2022-10-12T15:37:39.903Z,101583.34
2022-10-12T15:42:42.509Z,101578.38
2022-10-12T15:47:48.216Z,101570.91
2022-10-12T15:52:49.832Z,101565.63
2022-10-12T15:57:51.639Z,101558.78
2022-10-12T16:02:54.835Z,101537.38
2022-10-12T16:07:56.435Z,101543.03
2022-10-12T16:12:58.171Z,101522.00
2022-10-12T16:18:01.098Z,101546.38
2022-10-12T16:23:04.191Z,101543.44
2022-10-12T16:28:05.722Z,101558.06
2022-10-12T16:33:07.403Z,101534.81
2022-10-12T16:38:09.718Z,101557.88
2022-10-12T16:43:11.536Z,101553.81
2022-10-12T16:48:13.094Z,101565.09
2022-10-12T16:53:14.495Z,101571.66
2022-10-12T16:58:15.994Z,101573.78
2022-10-12T17:03:17.482Z,101579.50
2022-10-12T17:08:18.896Z,101588.63
2022-10-12T17:13:20.281Z,101594.97
2022-10-12T17:18:21.730Z,101589.94
2022-10-12T17:23:23.232Z,101584.72
2022-10-12T17:28:24.854Z,101595.09
2022-10-12T17:33:26.242Z,101595.72
2022-10-12T17:38:27.699Z,101606.88
2022-10-12T17:43:29.374Z,101610.56
2022-10-12T17:48:31.059Z,101590.16
2022-10-12T17:53:32.459Z,101587.47
2022-10-12T17:58:36.198Z,101582.34
2022-10-12T18:03:39.612Z,101592.22
2022-10-12T18:08:41.563Z,101587.97
2022-10-12T18:14:01.662Z,101586.50
2022-10-12T18:19:05.271Z,101590.69
2022-10-12T18:24:16.071Z,101589.84
2022-10-12T18:29:18.026Z,101603.16
2022-10-12T18:34:19.454Z,101598.59
2022-10-12T18:39:20.845Z,101606.97
2022-10-12T18:44:22.544Z,101604.94
2022-10-12T18:49:24.131Z,101591.00
2022-10-12T18:54:25.564Z,101588.72
2022-10-12T18:59:27.075Z,101600.38
2022-10-12T19:04:28.443Z,101600.44
2022-10-12T19:09:29.918Z,101591.91
2022-10-12T19:14:31.585Z,101586.63
2022-10-12T19:19:33.022Z,101573.09
2022-10-12T19:24:34.623Z,101559.97
2022-10-12T19:29:36.266Z,101564.69
2022-10-12T19:34:37.707Z,101560.63
2022-10-12T19:39:44.429Z,101555.34
2022-10-12T19:44:45.887Z,101558.06
2022-10-12T19:49:47.272Z,101553.78
2022-10-12T19:54:48.779Z,101558.59
2022-10-12T19:59:50.210Z,101558.88
2022-10-12T20:04:54.125Z,101555.63
2022-10-12T20:09:55.561Z,101546.66
2022-10-12T20:14:57.121Z,101556.34
2022-10-12T20:19:58.510Z,101550.78
2022-10-12T20:25:00.010Z,101558.75
2022-10-12T20:30:01.484Z,101556.97
2022-10-12T20:35:03.602Z,101561.19
2022-10-12T20:40:05.615Z,101553.38
2022-10-12T20:45:07.586Z,101558.91
2022-10-12T20:50:10.043Z,101570.19
2022-10-12T20:55:11.497Z,101559.69
2022-10-12T21:00:13.535Z,101557.91
2022-10-12T21:05:15.074Z,101555.38
2022-10-12T21:10:16.683Z,101556.28
2022-10-12T21:15:18.091Z,101550.94
2022-10-12T21:20:19.507Z,101552.78
2022-10-12T21:25:20.909Z,101544.63
2022-10-12T21:30:22.323Z,101545.63
2022-10-12T21:35:23.769Z,101558.91
2022-10-12T21:40:25.269Z,101547.19
2022-10-12T21:45:26.750Z,101550.53
2022-10-12T21:50:28.313Z,101541.94
2022-10-12T21:55:32.534Z,101536.66
2022-10-12T22:00:34.040Z,101536.69
2022-10-12T22:05:39.670Z,101526.28
2022-10-12T22:10:41.130Z,101531.78
2022-10-12T22:15:42.574Z,101531.78
2022-10-12T22:20:45.961Z,101531.59
2022-10-12T22:25:47.438Z,101528.13
2022-10-12T22:30:48.918Z,101533.25
2022-10-12T22:35:59.151Z,101530.44
2022-10-12T22:41:03.351Z,101525.88
2022-10-12T22:46:04.985Z,101531.28
2022-10-12T22:51:07.290Z,101524.38
2022-10-12T22:56:14.469Z,101520.03
2022-10-12T23:01:17.203Z,101526.94
2022-10-12T23:06:18.951Z,101520.53
2022-10-12T23:11:22.837Z,101514.47
2022-10-12T23:16:29.876Z,101513.75
2022-10-12T23:21:32.579Z,101509.03
2022-10-12T23:26:35.061Z,101508.16
2022-10-12T23:31:36.506Z,101506.34
2022-10-12T23:36:37.912Z,101503.06
2022-10-12T23:41:39.309Z,101506.41
2022-10-12T23:46:40.721Z,101504.69
2022-10-12T23:51:42.380Z,101500.31
2022-10-12T23:56:43.756Z,101495.63
